createdAt,value
2018-03-06T00:01:27.727Z,51.73
2018-03-06T00:04:01.841Z,51.10
2018-03-06T00:06:35.831Z,53.00
2018-03-06T00:09:09.619Z,52.17
2018-03-06T00:11:43.474Z,53.70
2018-03-06T00:14:19.194Z,52.77
2018-03-06T00:16:54.213Z,51.50
2018-03-06T00:19:29.369Z,54.90
2018-03-06T00:22:04.146Z,53.60
2018-03-06T00:24:38.614Z,54.23
2018-03-06T00:27:13.446Z,53.63
2018-03-06T00:29:47.567Z,54.33
2018-03-06T00:32:21.688Z,54.40
2018-03-06T00:34:55.467Z,53.33
2018-03-06T00:37:29.691Z,53.00
2018-03-06T00:40:03.982Z,55.20
2018-03-06T00:42:37.903Z,57.17
2018-03-06T00:45:11.721Z,55.60
2018-03-06T00:47:46.862Z,56.23
2018-03-06T00:50:21.621Z,57.73
2018-03-06T00:52:56.389Z,58.50
2018-03-06T00:55:31.641Z,56.93
2018-03-06T00:58:06.176Z,57.07
2018-03-06T01:00:40.996Z,55.13
2018-03-06T01:03:15.641Z,52.77
2018-03-06T01:05:50.305Z,54.23
2018-03-06T01:08:25.024Z,55.20
2018-03-06T01:10:58.711Z,53.03
2018-03-06T01:13:32.577Z,53.13
2018-03-06T01:16:07.463Z,53.43
2018-03-06T01:18:42.871Z,53.93
2018-03-06T01:21:18.296Z,56.73
2018-03-06T01:23:52.919Z,54.03
2018-03-06T01:26:27.864Z,52.97
2018-03-06T01:29:02.632Z,54.47
2018-03-06T01:31:36.811Z,53.83
2018-03-06T01:34:10.823Z,56.07
2018-03-06T01:36:45.216Z,55.83
2018-03-06T01:39:19.153Z,54.80
2018-03-06T01:41:53.860Z,54.03
2018-03-06T01:44:27.937Z,52.43
2018-03-06T01:47:03.015Z,49.93
2018-03-06T01:49:37.446Z,52.37
2018-03-06T01:52:12.127Z,53.23
2018-03-06T01:54:46.613Z,53.63
2018-03-06T01:57:20.968Z,52.83
2018-03-06T01:59:57.201Z,54.07
2018-03-06T02:02:31.464Z,53.73
2018-03-06T02:05:06.385Z,55.33
2018-03-06T02:07:40.732Z,57.10
2018-03-06T02:10:15.686Z,53.73
2018-03-06T02:12:50.162Z,52.20
2018-03-06T02:15:23.938Z,56.03
2018-03-06T02:17:58.735Z,52.10
2018-03-06T02:20:32.808Z,52.73
2018-03-06T02:23:06.706Z,55.50
2018-03-06T02:25:41.197Z,55.20
2018-03-06T02:28:15.353Z,55.50
2018-03-06T02:30:50.515Z,56.20
2018-03-06T02:33:25.198Z,56.43
2018-03-06T02:36:00.026Z,59.90
2018-03-06T02:38:33.758Z,57.50
2018-03-06T02:41:08.369Z,57.90
2018-03-06T02:43:42.287Z,54.63
2018-03-06T02:46:17.207Z,53.67
2018-03-06T02:48:52.128Z,55.03
2018-03-06T02:51:27.996Z,53.57
2018-03-06T02:54:02.819Z,54.13
2018-03-06T02:56:37.547Z,55.73
2018-03-06T02:59:13.185Z,55.07
2018-03-06T03:01:48.375Z,55.47
2018-03-06T03:04:22.024Z,57.37
2018-03-06T03:06:57.891Z,57.67
2018-03-06T03:09:31.700Z,55.47
2018-03-06T03:12:05.884Z,57.97
2018-03-06T03:14:40.124Z,52.83
2018-03-06T03:17:15.044Z,54.23
2018-03-06T03:19:50.234Z,52.53
2018-03-06T03:22:24.036Z,57.60
2018-03-06T03:24:57.882Z,55.80
2018-03-06T03:27:32.531Z,57.60
2018-03-06T03:30:06.618Z,57.00
2018-03-06T03:32:40.739Z,59.80
2018-03-06T03:35:14.723Z,59.63
2018-03-06T03:37:49.178Z,58.13
2018-03-06T03:40:23.165Z,62.20
2018-03-06T03:42:57.049Z,62.17
2018-03-06T03:45:32.130Z,55.73
2018-03-06T03:48:06.550Z,54.13
2018-03-06T03:50:41.277Z,56.13
2018-03-06T03:53:15.449Z,55.70
2018-03-06T03:55:50.224Z,56.63
2018-03-06T03:58:24.101Z,54.53
2018-03-06T04:00:58.238Z,56.87
2018-03-06T04:03:33.830Z,58.00
2018-03-06T04:06:09.255Z,57.03
2018-03-06T04:08:42.925Z,58.53
2018-03-06T04:11:17.232Z,57.17
2018-03-06T04:13:51.976Z,56.47
2018-03-06T04:16:26.465Z,58.27
2018-03-06T04:19:00.479Z,57.33
2018-03-06T04:21:35.134Z,60.13
2018-03-06T04:24:09.200Z,60.53
2018-03-06T04:26:43.634Z,60.30
2018-03-06T04:29:18.071Z,57.30
2018-03-06T04:31:52.161Z,60.70
2018-03-06T04:34:26.691Z,60.70
2018-03-06T04:37:00.391Z,57.87
2018-03-06T04:39:35.249Z,58.67
2018-03-06T04:42:09.955Z,53.70
2018-03-06T04:44:44.213Z,53.07
2018-03-06T04:47:17.964Z,50.33
2018-03-06T04:49:52.869Z,48.77
2018-03-06T04:52:26.891Z,49.70
2018-03-06T04:55:01.023Z,50.77
2018-03-06T04:57:35.792Z,48.60
2018-03-06T05:00:09.755Z,49.23
2018-03-06T05:02:43.961Z,45.80
2018-03-06T05:05:17.679Z,47.13
2018-03-06T05:07:51.606Z,47.23
2018-03-06T05:10:26.123Z,45.27
2018-03-06T05:12:59.976Z,44.73
2018-03-06T05:15:34.305Z,45.23
2018-03-06T05:18:08.224Z,44.87
2018-03-06T05:20:42.842Z,43.93
2018-03-06T05:23:17.683Z,46.20
2018-03-06T05:25:52.107Z,45.93
2018-03-06T05:28:26.487Z,48.23
2018-03-06T05:31:00.947Z,44.23
2018-03-06T05:33:34.810Z,43.37
2018-03-06T05:36:08.563Z,43.00
2018-03-06T05:38:43.377Z,43.20
2018-03-06T05:41:18.174Z,47.10
2018-03-06T05:43:51.936Z,45.67
2018-03-06T05:46:26.635Z,43.73
2018-03-06T05:49:00.331Z,46.73
2018-03-06T05:51:35.303Z,49.23
2018-03-06T05:54:09.272Z,51.13
2018-03-06T05:56:43.905Z,45.43
2018-03-06T05:59:18.805Z,43.10
2018-03-06T06:01:53.035Z,44.30
2018-03-06T06:04:31.788Z,49.00
2018-03-06T06:07:06.715Z,51.47
2018-03-06T06:09:40.464Z,49.13
2018-03-06T06:12:15.899Z,53.23
2018-03-06T06:14:49.740Z,52.63
2018-03-06T06:17:24.370Z,54.07
2018-03-06T06:19:58.650Z,55.23
2018-03-06T06:22:33.232Z,52.03
2018-03-06T06:25:07.922Z,50.83
2018-03-06T06:27:42.465Z,48.07
2018-03-06T06:30:18.178Z,48.10
2018-03-06T06:32:53.139Z,50.03
2018-03-06T06:35:27.211Z,50.93
2018-03-06T06:38:01.883Z,52.30
2018-03-06T06:40:36.463Z,52.87
2018-03-06T06:43:10.513Z,52.47
2018-03-06T06:45:45.742Z,52.07
2018-03-06T06:48:19.448Z,48.57
2018-03-06T06:50:54.525Z,48.77
2018-03-06T06:53:28.868Z,50.13
2018-03-06T06:56:02.628Z,51.20
2018-03-06T06:58:36.988Z,50.57
2018-03-06T07:01:10.703Z,52.87
2018-03-06T07:03:44.733Z,53.53
2018-03-06T07:06:19.536Z,50.90
2018-03-06T07:08:53.472Z,53.63
2018-03-06T07:11:27.580Z,54.17
2018-03-06T07:14:02.113Z,53.70
2018-03-06T07:16:35.660Z,52.67
2018-03-06T07:19:10.069Z,69.70
2018-03-06T07:21:44.347Z,61.30
2018-03-06T07:24:18.441Z,55.57
2018-03-06T07:26:52.356Z,55.37
2018-03-06T07:29:26.884Z,66.80
2018-03-06T07:32:00.779Z,90.33
2018-03-06T07:34:35.471Z,53.63
2018-03-06T07:37:09.930Z,47.70
2018-03-06T07:39:43.799Z,50.20
2018-03-06T07:42:19.404Z,43.57
2018-03-06T07:44:53.809Z,42.53
2018-03-06T07:47:27.496Z,44.50
2018-03-06T07:50:02.154Z,44.93
2018-03-06T07:52:35.880Z,45.87
2018-03-06T07:55:09.488Z,45.87
2018-03-06T07:57:43.885Z,46.47
2018-03-06T08:00:18.476Z,45.10
2018-03-06T08:02:52.292Z,45.30
2018-03-06T08:05:26.405Z,44.70
2018-03-06T08:08:00.111Z,47.87
2018-03-06T08:10:34.881Z,45.97
2018-03-06T08:13:08.537Z,44.93
2018-03-06T08:15:42.999Z,46.50
2018-03-06T08:18:16.843Z,45.80
2018-03-06T08:20:51.279Z,45.97
2018-03-06T08:23:25.605Z,47.33
2018-03-06T08:26:00.276Z,46.13
2018-03-06T08:28:34.008Z,44.73
2018-03-06T08:31:07.924Z,42.57
2018-03-06T08:33:41.547Z,43.17
2018-03-06T08:36:15.608Z,43.30
2018-03-06T08:38:49.431Z,43.73
2018-03-06T08:41:25.629Z,42.10
2018-03-06T08:44:00.017Z,42.07
2018-03-06T08:46:35.618Z,40.30
2018-03-06T08:49:09.498Z,37.27
2018-03-06T08:51:43.562Z,38.80
2018-03-06T08:54:17.568Z,37.70
2018-03-06T08:56:51.064Z,38.27
2018-03-06T08:59:25.671Z,36.93
2018-03-06T09:01:59.384Z,36.80
2018-03-06T09:04:32.965Z,37.27
2018-03-06T09:07:07.283Z,37.87
2018-03-06T09:09:40.883Z,37.27
2018-03-06T09:12:15.681Z,35.50
2018-03-06T09:14:49.633Z,37.37
2018-03-06T09:17:24.849Z,37.23
2018-03-06T09:19:58.805Z,37.30
2018-03-06T09:22:32.815Z,38.53
2018-03-06T09:25:07.587Z,39.10
2018-03-06T09:27:41.870Z,39.13
2018-03-06T09:30:16.272Z,40.80
2018-03-06T09:32:50.077Z,40.13
2018-03-06T09:35:25.210Z,39.83
2018-03-06T09:37:59.835Z,40.90
2018-03-06T09:40:34.684Z,40.27
2018-03-06T09:43:08.657Z,40.23
2018-03-06T09:45:43.293Z,40.77
2018-03-06T09:48:18.542Z,42.83
2018-03-06T09:50:53.256Z,40.73
2018-03-06T09:53:28.181Z,43.23
2018-03-06T09:56:02.372Z,43.60
2018-03-06T09:58:37.152Z,43.00
2018-03-06T10:01:12.375Z,45.27
2018-03-06T10:03:47.020Z,45.30
2018-03-06T10:06:20.748Z,44.00
2018-03-06T10:08:56.248Z,41.47
2018-03-06T10:11:30.663Z,43.37
2018-03-06T10:14:06.636Z,42.63
2018-03-06T10:16:40.637Z,43.33
2018-03-06T10:19:15.236Z,42.80
2018-03-06T10:21:49.999Z,43.47
2018-03-06T10:24:24.808Z,40.83
2018-03-06T10:27:00.042Z,44.10
2018-03-06T10:29:35.313Z,41.03
2018-03-06T10:32:09.307Z,44.17
2018-03-06T10:34:43.917Z,42.00
2018-03-06T10:37:18.219Z,43.07
2018-03-06T10:39:52.343Z,41.50
2018-03-06T10:42:27.403Z,41.53
2018-03-06T10:45:01.187Z,40.60
2018-03-06T10:47:34.998Z,45.23
2018-03-06T10:50:09.500Z,45.03
2018-03-06T10:52:44.112Z,41.17
2018-03-06T10:55:18.956Z,43.57
2018-03-06T10:57:53.612Z,41.40
2018-03-06T11:00:33.530Z,46.23
2018-03-06T11:03:08.773Z,41.53
2018-03-06T11:05:43.700Z,42.60
2018-03-06T11:08:18.573Z,45.33
2018-03-06T11:10:55.010Z,41.77
2018-03-06T11:13:31.464Z,42.80
2018-03-06T11:16:05.429Z,41.80
2018-03-06T11:18:40.091Z,42.33
2018-03-06T11:21:14.936Z,42.47
2018-03-06T11:23:49.541Z,40.70
2018-03-06T11:26:23.269Z,42.60
2018-03-06T11:28:57.325Z,44.30
2018-03-06T11:31:31.187Z,44.20
2018-03-06T11:34:06.196Z,42.53
2018-03-06T11:36:40.942Z,41.60
2018-03-06T11:39:15.149Z,43.37
2018-03-06T11:41:48.940Z,41.70
2018-03-06T11:44:23.792Z,40.77
2018-03-06T11:46:58.312Z,42.63
2018-03-06T11:49:33.132Z,41.50
2018-03-06T11:52:07.395Z,42.40
2018-03-06T11:54:41.091Z,43.10
2018-03-06T11:57:15.990Z,40.53
2018-03-06T11:59:49.982Z,42.67
2018-03-06T12:02:25.024Z,43.83
2018-03-06T12:04:59.015Z,42.13
2018-03-06T12:07:34.186Z,39.97
2018-03-06T12:10:08.997Z,43.07
2018-03-06T12:12:43.728Z,41.43
2018-03-06T12:15:17.700Z,42.50
2018-03-06T12:17:51.382Z,41.23
2018-03-06T12:20:26.033Z,42.70
2018-03-06T12:22:59.872Z,42.07
2018-03-06T12:25:33.973Z,41.73
2018-03-06T12:28:09.102Z,44.67
2018-03-06T12:30:43.851Z,43.20
2018-03-06T12:33:17.764Z,43.13
2018-03-06T12:35:52.448Z,41.70
2018-03-06T12:38:26.673Z,41.80
2018-03-06T12:41:02.373Z,42.97
2018-03-06T12:43:36.723Z,41.03
2018-03-06T12:46:11.520Z,41.57
2018-03-06T12:48:46.672Z,42.53
2018-03-06T12:51:21.343Z,42.33
2018-03-06T12:53:57.143Z,43.00
2018-03-06T12:56:30.892Z,43.40
2018-03-06T12:59:04.894Z,43.27
2018-03-06T13:01:38.689Z,40.77
2018-03-06T13:04:13.319Z,43.33
2018-03-06T13:06:48.404Z,42.10
2018-03-06T13:09:22.996Z,43.97
2018-03-06T13:11:57.799Z,41.77
2018-03-06T13:14:36.424Z,41.47
2018-03-06T13:17:11.249Z,42.10
2018-03-06T13:19:44.848Z,43.03
2018-03-06T13:22:19.444Z,42.60
2018-03-06T13:24:53.083Z,43.90
2018-03-06T13:27:27.388Z,41.83
2018-03-06T13:30:01.959Z,40.90
2018-03-06T13:32:35.684Z,42.37
2018-03-06T13:35:10.360Z,42.77
2018-03-06T13:37:45.069Z,42.87
2018-03-06T13:40:19.943Z,42.80
2018-03-06T13:42:54.663Z,41.63
2018-03-06T13:45:28.496Z,42.43
2018-03-06T13:48:02.444Z,43.37
2018-03-06T13:50:36.920Z,41.27
2018-03-06T13:53:11.685Z,42.47
2018-03-06T13:55:46.608Z,40.73
2018-03-06T13:58:21.351Z,41.80
2018-03-06T14:00:56.573Z,41.63
2018-03-06T14:03:31.508Z,41.80
2018-03-06T14:06:06.169Z,42.47
2018-03-06T14:08:40.764Z,45.37
2018-03-06T14:11:14.520Z,45.93
2018-03-06T14:13:48.476Z,45.73
2018-03-06T14:16:23.600Z,46.93
2018-03-06T14:18:58.466Z,45.30
2018-03-06T14:21:33.264Z,48.70
2018-03-06T14:24:08.055Z,46.33
2018-03-06T14:26:41.985Z,41.10
2018-03-06T14:29:16.642Z,45.17
2018-03-06T14:31:50.313Z,44.27
2018-03-06T14:34:25.325Z,43.17
2018-03-06T14:37:00.424Z,41.63
2018-03-06T14:39:34.525Z,41.43
2018-03-06T14:42:09.202Z,43.90
2018-03-06T14:44:43.026Z,41.87
2018-03-06T14:47:17.964Z,42.67
2018-03-06T14:49:51.748Z,42.90
2018-03-06T14:52:26.760Z,41.07
2018-03-06T14:55:00.595Z,41.03
2018-03-06T14:57:35.276Z,41.77
2018-03-06T15:00:09.648Z,45.43
2018-03-06T15:02:44.263Z,40.87
2018-03-06T15:05:18.324Z,38.77
2018-03-06T15:07:52.912Z,34.60
2018-03-06T15:10:27.958Z,33.27
2018-03-06T15:13:01.930Z,35.03
2018-03-06T15:15:36.663Z,31.07
2018-03-06T15:18:12.309Z,32.53
2018-03-06T15:20:47.310Z,30.60
2018-03-06T15:23:21.029Z,31.37
2018-03-06T15:25:54.897Z,32.83
2018-03-06T15:28:29.500Z,33.47
2018-03-06T15:31:03.230Z,30.47
2018-03-06T15:33:38.015Z,30.13
2018-03-06T15:36:12.315Z,30.33
2018-03-06T15:38:46.443Z,31.57
2018-03-06T15:41:20.244Z,30.67
2018-03-06T15:43:55.087Z,30.03
2018-03-06T15:46:29.588Z,27.30
2018-03-06T15:49:03.364Z,29.33
2018-03-06T15:51:37.751Z,30.30
2018-03-06T15:54:13.075Z,30.97
2018-03-06T15:56:47.068Z,30.60
2018-03-06T15:59:21.484Z,30.33
2018-03-06T16:01:55.345Z,30.70
2018-03-06T16:04:29.195Z,30.80
2018-03-06T16:07:02.998Z,32.03
2018-03-06T16:09:37.220Z,34.33
2018-03-06T16:12:12.318Z,32.47
2018-03-06T16:14:46.800Z,31.57
2018-03-06T16:17:21.613Z,33.33
2018-03-06T16:19:56.070Z,33.13
2018-03-06T16:22:30.830Z,33.50
2018-03-06T16:25:05.658Z,32.63
2018-03-06T16:27:39.656Z,33.50
2018-03-06T16:30:14.498Z,32.33
2018-03-06T16:32:49.238Z,34.50
2018-03-06T16:35:23.026Z,33.43
2018-03-06T16:37:57.771Z,32.93
2018-03-06T16:40:33.312Z,33.50
2018-03-06T16:43:07.927Z,32.57
2018-03-06T16:45:41.837Z,35.73
2018-03-06T16:48:17.375Z,38.00
2018-03-06T16:50:51.336Z,36.50
2018-03-06T16:53:26.132Z,35.47
2018-03-06T16:56:00.955Z,34.90
2018-03-06T16:58:35.035Z,33.73
2018-03-06T17:01:09.794Z,35.43
2018-03-06T17:03:43.992Z,32.70
2018-03-06T17:06:21.029Z,34.00
2018-03-06T17:08:57.159Z,33.63
2018-03-06T17:11:30.812Z,34.03
2018-03-06T17:14:06.297Z,35.17
2018-03-06T17:16:42.253Z,35.03
2018-03-06T17:19:16.782Z,34.03
2018-03-06T17:21:50.565Z,38.80
2018-03-06T17:24:25.800Z,38.57
2018-03-06T17:27:00.423Z,36.03
2018-03-06T17:29:34.274Z,34.73
2018-03-06T17:32:08.991Z,36.83
2018-03-06T17:34:43.907Z,35.83
2018-03-06T17:37:17.691Z,34.37
2018-03-06T17:39:52.485Z,32.67
2018-03-06T17:42:26.404Z,32.77
2018-03-06T17:45:00.798Z,47.20
2018-03-06T17:47:34.507Z,36.00
2018-03-06T17:50:09.087Z,32.50
2018-03-06T17:52:43.852Z,32.23
2018-03-06T17:55:18.948Z,32.47
2018-03-06T17:57:53.101Z,33.60
2018-03-06T18:00:27.143Z,33.87
2018-03-06T18:03:01.972Z,34.47
2018-03-06T18:05:36.271Z,32.80
2018-03-06T18:08:10.327Z,33.60
2018-03-06T18:10:44.127Z,34.10
2018-03-06T18:13:18.228Z,34.30
2018-03-06T18:15:52.498Z,33.30
2018-03-06T18:18:26.035Z,33.70
2018-03-06T18:20:59.959Z,34.60
2018-03-06T18:23:33.475Z,35.80
2018-03-06T18:26:08.088Z,34.33
2018-03-06T18:28:41.722Z,34.33
2018-03-06T18:31:17.170Z,33.97
2018-03-06T18:33:51.089Z,34.43
2018-03-06T18:36:25.629Z,33.07
2018-03-06T18:38:59.928Z,33.53
2018-03-06T18:41:33.667Z,33.70
2018-03-06T18:44:07.445Z,33.97
2018-03-06T18:46:42.365Z,35.80
2018-03-06T18:49:16.220Z,33.60
2018-03-06T18:51:51.562Z,33.47
2018-03-06T18:54:25.529Z,34.23
2018-03-06T18:57:00.471Z,34.53
2018-03-06T18:59:35.093Z,35.80
2018-03-06T19:02:21.867Z,34.57
2018-03-06T19:05:08.100Z,37.70
2018-03-06T19:07:42.222Z,35.17
2018-03-06T19:10:16.833Z,35.57
2018-03-06T19:12:50.540Z,35.07
2018-03-06T19:15:24.446Z,39.63
2018-03-06T19:17:59.478Z,36.83
2018-03-06T19:20:33.342Z,47.93
2018-03-06T19:23:07.320Z,47.73
2018-03-06T19:25:41.931Z,45.03
2018-03-06T19:28:17.244Z,38.40
2018-03-06T19:30:51.373Z,38.20
2018-03-06T19:33:25.092Z,37.43
2018-03-06T19:35:59.856Z,42.33
2018-03-06T19:38:34.416Z,44.80
2018-03-06T19:41:08.983Z,44.73
2018-03-06T19:43:43.463Z,41.00
2018-03-06T19:46:18.422Z,40.40
2018-03-06T19:48:53.338Z,38.13
2018-03-06T19:51:27.055Z,39.03
2018-03-06T19:54:00.825Z,37.80
2018-03-06T19:56:34.901Z,38.37
2018-03-06T19:59:08.963Z,40.77
2018-03-06T20:01:42.980Z,42.10
2018-03-06T20:04:17.079Z,41.83
2018-03-06T20:06:50.897Z,42.23
2018-03-06T20:09:24.618Z,40.83
2018-03-06T20:11:58.191Z,39.00
2018-03-06T20:14:38.126Z,40.03
2018-03-06T20:17:12.572Z,40.47
2018-03-06T20:19:46.228Z,37.40
2018-03-06T20:22:19.879Z,36.73
2018-03-06T20:24:59.185Z,39.40
2018-03-06T20:27:33.724Z,39.97
2018-03-06T20:30:07.432Z,40.07
2018-03-06T20:32:47.036Z,40.40
2018-03-06T20:35:20.890Z,41.83
2018-03-06T20:37:54.824Z,39.80
2018-03-06T20:40:33.871Z,38.77
2018-03-06T20:43:07.521Z,39.17
2018-03-06T20:45:46.780Z,39.33
2018-03-06T20:48:20.446Z,39.20
2018-03-06T20:50:54.351Z,38.60
2018-03-06T20:53:34.610Z,37.50
2018-03-06T20:56:08.361Z,37.77
2018-03-06T20:58:42.118Z,40.23
2018-03-06T21:01:17.243Z,37.93
2018-03-06T21:03:51.484Z,38.53
2018-03-06T21:06:25.992Z,37.87
2018-03-06T21:08:59.627Z,39.03
2018-03-06T21:11:33.639Z,38.67
2018-03-06T21:14:07.260Z,41.40
2018-03-06T21:16:41.920Z,43.57
2018-03-06T21:19:15.491Z,42.20
2018-03-06T21:21:50.171Z,40.70
2018-03-06T21:24:23.828Z,38.80
2018-03-06T21:26:57.457Z,38.60
2018-03-06T21:29:31.993Z,38.37
2018-03-06T21:32:05.726Z,35.70
2018-03-06T21:34:40.171Z,34.50
2018-03-06T21:37:13.735Z,38.53
2018-03-06T21:39:47.415Z,36.17
2018-03-06T21:42:20.967Z,39.83
2018-03-06T21:44:54.698Z,41.17
2018-03-06T21:47:28.404Z,40.63
2018-03-06T21:50:02.162Z,41.93
2018-03-06T21:52:36.623Z,41.73
2018-03-06T21:55:10.147Z,38.07
2018-03-06T21:57:44.559Z,38.77
2018-03-06T22:00:18.296Z,39.60
2018-03-06T22:02:52.764Z,42.97
2018-03-06T22:05:26.278Z,43.83
2018-03-06T22:07:59.908Z,42.97
2018-03-06T22:10:33.455Z,40.53
2018-03-06T22:13:07.069Z,39.73
2018-03-06T22:15:41.413Z,44.03
2018-03-06T22:18:14.972Z,46.83
2018-03-06T22:20:48.847Z,45.30
2018-03-06T22:23:23.292Z,43.07
2018-03-06T22:25:56.855Z,40.90
2018-03-06T22:28:30.598Z,40.93
2018-03-06T22:31:04.331Z,41.73
2018-03-06T22:33:38.926Z,50.17
2018-03-06T22:36:14.225Z,48.97
2018-03-06T22:38:52.299Z,52.57
2018-03-06T22:41:25.931Z,48.93
2018-03-06T22:43:59.599Z,45.50
2018-03-06T22:46:33.603Z,42.10
2018-03-06T22:49:07.464Z,41.37
2018-03-06T22:51:40.939Z,40.43
2018-03-06T22:54:14.704Z,42.93
2018-03-06T22:56:48.482Z,47.00
2018-03-06T22:59:22.203Z,47.07
2018-03-06T23:01:56.600Z,45.23
2018-03-06T23:04:30.859Z,46.17
2018-03-06T23:07:04.766Z,46.23
2018-03-06T23:09:39.167Z,46.23
2018-03-06T23:12:12.973Z,46.77
2018-03-06T23:14:46.852Z,44.87
2018-03-06T23:17:20.768Z,46.57
2018-03-06T23:20:09.687Z,43.53
2018-03-06T23:22:44.430Z,43.53
2018-03-06T23:25:19.042Z,43.30
2018-03-06T23:27:53.539Z,46.60
2018-03-06T23:30:27.948Z,44.13
2018-03-06T23:33:02.387Z,43.60
2018-03-06T23:35:38.427Z,43.30
2018-03-06T23:38:14.145Z,46.10
2018-03-06T23:40:49.028Z,42.80
2018-03-06T23:43:22.934Z,41.17
2018-03-06T23:45:56.713Z,41.77
2018-03-06T23:48:31.137Z,43.17
2018-03-06T23:51:05.406Z,43.57
2018-03-06T23:53:40.808Z,41.77
2018-03-06T23:56:14.752Z,38.37
2018-03-06T23:58:49.123Z,40.20
